Time;durP1;ratioP1;P1;durP2;ratioP2;P2;SDS_P1;SDS_P2;PMS_P1;PMS_P2;Temp;Humidity;BMP_temperature;BMP_pressure;BME280_temperature;BME280_humidity;BME280_pressure;Samples;Min_cycle;Max_cycle;Signal;HPM_P1;HPM_P2
2022/05/24 00:00:01;;;;;;;4.20;2.50;;;;;;;15.80;100.00;95444.19;5026345;28;103732;-64
2022/05/24 00:02:27;;;;;;;3.63;2.47;;;;;;;15.84;100.00;95445.13;5026555;27;104146;-64
2022/05/24 00:05:23;;;;;;;5.77;3.10;;;;;;;15.83;100.00;95443.53;5014276;28;102611;-64
2022/05/24 00:07:52;;;;;;;6.27;2.53;;;;;;;15.85;100.00;95436.78;5038777;27;102923;-64
2022/05/24 00:10:25;;;;;;;2.87;2.53;;;;;;;15.86;100.00;95435.69;5042212;27;105813;-64
2022/05/24 00:12:52;;;;;;;6.97;3.03;;;;;;;15.88;100.00;95427.34;5029195;28;102750;-64
2022/05/24 00:15:34;;;;;;;4.37;2.80;;;;;;;15.92;100.00;95426.41;5017788;28;105318;-63
2022/05/24 00:18:04;;;;;;;2.60;2.40;;;;;;;15.94;100.00;95420.75;5022868;28;103308;-64
2022/05/24 00:20:34;;;;;;;5.60;2.80;;;;;;;15.99;100.00;95431.34;5030290;28;103435;-64
2022/05/24 00:23:03;;;;;;;3.73;2.50;;;;;;;16.01;100.00;95429.94;5013223;28;106594;-64
2022/05/24 00:25:49;;;;;;;3.97;2.57;;;;;;;16.02;100.00;95436.88;5030647;28;102031;-64
2022/05/24 00:28:17;;;;;;;4.20;2.87;;;;;;;16.04;100.00;95441.94;5030607;28;104758;-64
2022/05/24 00:30:45;;;;;;;3.90;2.60;;;;;;;16.04;100.00;95437.38;5030011;28;103745;-63
2022/05/24 00:33:13;;;;;;;3.40;2.47;;;;;;;16.07;100.00;95427.94;5030699;28;101966;-64
2022/05/24 00:35:40;;;;;;;4.67;2.40;;;;;;;16.07;100.00;95427.94;5033174;28;105167;-64
2022/05/24 00:38:12;;;;;;;8.00;3.43;;;;;;;16.03;100.00;95435.00;5030555;28;101870;-64
2022/05/24 00:40:46;;;;;;;4.33;2.60;;;;;;;15.92;100.00;95437.13;5030207;28;105127;-64
2022/05/24 00:43:19;;;;;;;4.70;2.70;;;;;;;15.81;100.00;95432.34;5029665;28;104238;-64
2022/05/24 00:45:51;;;;;;;3.83;2.80;;;;;;;15.79;100.00;95437.19;5030096;28;101953;-64
2022/05/24 00:48:28;;;;;;;4.33;2.63;;;;;;;15.79;100.00;95431.84;5030230;28;105853;-64
2022/05/24 00:50:55;;;;;;;6.23;2.90;;;;;;;15.82;100.00;95436.59;5029565;28;105828;-64
2022/05/24 00:53:26;;;;;;;3.90;2.70;;;;;;;15.83;100.00;95440.88;5030072;28;102222;-64
2022/05/24 00:56:06;;;;;;;5.03;2.77;;;;;;;15.78;100.00;95439.13;5030293;28;105586;-64
2022/05/24 00:59:04;;;;;;;4.00;2.93;;;;;;;15.73;100.00;95441.91;5032785;28;104185;-64
2022/05/24 01:01:35;;;;;;;4.37;3.33;;;;;;;15.75;100.00;95444.28;5009654;28;105560;-64
2022/05/24 01:04:07;;;;;;;4.23;3.37;;;;;;;15.76;100.00;95452.00;5025997;28;103812;-64
2022/05/24 01:06:35;;;;;;;4.73;3.50;;;;;;;15.78;100.00;95449.03;5030019;28;101998;-63
2022/05/24 01:09:08;;;;;;;6.60;3.67;;;;;;;15.79;100.00;95453.28;5030281;28;103521;-64
2022/05/24 01:11:39;;;;;;;4.27;3.40;;;;;;;15.80;100.00;95447.63;5009514;28;105395;-64
2022/05/24 01:14:13;;;;;;;6.47;4.03;;;;;;;15.75;100.00;95452.34;5011267;28;101747;-64
2022/05/24 01:16:41;;;;;;;6.17;3.90;;;;;;;15.75;100.00;95455.03;5011092;28;105406;-64
2022/05/24 01:19:14;;;;;;;6.40;3.60;;;;;;;15.77;100.00;95456.28;5030848;28;103249;-64
2022/05/24 01:21:41;;;;;;;5.50;3.40;;;;;;;15.79;100.00;95456.78;5012971;28;102372;-64
2022/05/24 01:27:42;;;;;;;4.37;3.40;;;;;;;15.85;100.00;95449.38;5018191;28;101840;-64
2022/05/24 01:30:11;;;;;;;5.43;3.30;;;;;;;15.96;100.00;95462.25;5029465;28;105109;-64
2022/05/24 01:38:15;;;;;;;4.37;3.13;;;;;;;15.99;100.00;95447.44;4994667;28;105156;-64
2022/05/24 01:40:43;;;;;;;5.87;3.37;;;;;;;15.97;100.00;95455.78;5028796;28;105714;-64
2022/05/24 01:43:11;;;;;;;4.67;3.10;;;;;;;15.94;100.00;95450.25;5032547;28;102036;-64
2022/05/24 01:46:23;;;;;;;7.37;3.23;;;;;;;16.01;100.00;95446.03;5028279;28;105738;-64
2022/05/24 01:48:53;;;;;;;5.07;2.90;;;;;;;16.04;100.00;95445.44;5029329;28;101968;-64
2022/05/24 01:51:24;;;;;;;3.63;2.67;;;;;;;16.10;100.00;95448.75;5028965;28;105310;-64
2022/05/24 01:54:00;;;;;;;9.40;3.47;;;;;;;16.10;100.00;95449.56;5028935;28;105441;-64
2022/05/24 01:56:34;;;;;;;5.73;3.37;;;;;;;16.08;100.00;95450.97;5028209;28;101875;-64
2022/05/24 01:59:04;;;;;;;4.90;3.30;;;;;;;16.05;100.00;95451.56;5029209;28;105309;-64
2022/05/24 02:01:40;;;;;;;4.43;2.90;;;;;;;16.04;100.00;95453.47;5028149;28;105535;-64
2022/05/24 02:04:08;;;;;;;5.97;2.77;;;;;;;16.03;100.00;95456.47;5030419;28;102269;-63
2022/05/24 02:06:36;;;;;;;3.10;2.80;;;;;;;16.00;100.00;95457.06;5031910;28;103960;-64
2022/05/24 02:09:04;;;;;;;3.70;2.70;;;;;;;15.96;100.00;95466.84;5029148;28;101912;-64
2022/05/24 02:11:33;;;;;;;6.17;2.80;;;;;;;15.97;100.00;95461.16;5044434;27;103815;-64
2022/05/24 02:14:18;;;;;;;3.27;2.70;;;;;;;15.97;100.00;95447.72;5041973;27;105541;-64
2022/05/24 02:16:54;;;;;;;3.10;2.80;;;;;;;16.00;100.00;95455.19;5062295;27;102032;-64
2022/05/24 02:19:23;;;;;;;3.83;2.90;;;;;;;16.02;100.00;95441.47;5028381;28;104872;-64
2022/05/24 02:21:56;;;;;;;4.90;3.43;;;;;;;15.98;100.00;95438.59;5009388;28;102831;-64
2022/05/24 02:24:36;;;;;;;3.27;2.87;;;;;;;15.97;100.00;95433.56;5028627;28;102052;-64
2022/05/24 02:27:09;;;;;;;4.90;3.30;;;;;;;15.96;100.00;95440.03;5028952;28;103717;-64
2022/05/24 02:29:37;;;;;;;4.70;3.33;;;;;;;15.96;100.00;95432.75;5031372;28;105434;-64
2022/05/24 02:32:05;;;;;;;4.53;3.20;;;;;;;15.96;100.00;95431.97;5029024;28;105601;-64
2022/05/24 02:35:09;;;;;;;4.57;3.47;;;;;;;15.84;100.00;95421.81;5028128;28;105361;-64
2022/05/24 02:37:36;;;;;;;4.53;2.90;;;;;;;15.81;100.00;95432.34;5028668;28;102226;-64
2022/05/24 02:42:48;;;;;;;3.30;3.00;;;;;;;15.79;100.00;95427.28;5029625;27;102821;-64
2022/05/24 02:45:58;;;;;;;3.87;3.20;;;;;;;15.83;100.00;95424.78;5028488;27;102027;-64
2022/05/24 02:48:28;;;;;;;7.57;3.40;;;;;;;15.79;100.00;95421.94;5032093;28;104079;-64
2022/05/24 02:50:55;;;;;;;5.80;3.70;;;;;;;15.80;100.00;95422.72;5031222;28;103738;-64
2022/05/24 02:53:23;;;;;;;4.67;3.43;;;;;;;15.77;100.00;95418.78;5035490;28;102321;-64
2022/05/24 02:55:50;;;;;;;5.60;3.60;;;;;;;15.77;100.00;95423.31;5033049;28;103103;-64
2022/05/24 03:02:05;;;;;;;5.13;3.27;;;;;;;15.76;100.00;95411.03;5030414;28;103912;-64
2022/05/24 03:04:42;;;;;;;5.07;3.17;;;;;;;15.77;100.00;95397.31;5032424;27;102251;-64
2022/05/24 03:09:53;;;;;;;4.80;3.13;;;;;;;15.72;100.00;95378.69;5033034;27;102881;-64
2022/05/24 03:18:52;;;;;;;4.30;3.40;;;;;;;15.73;100.00;95372.22;5032697;28;101989;-64
2022/05/24 03:21:23;;;;;;;5.60;3.10;;;;;;;15.76;100.00;95378.88;5031361;28;101867;-64
2022/05/24 03:27:58;;;;;;;8.23;3.17;;;;;;;15.69;100.00;95383.88;5029133;28;102388;-64
2022/05/24 03:30:25;;;;;;;5.43;3.27;;;;;;;15.67;100.00;95381.50;5032863;27;101923;-64
2022/05/24 03:32:52;;;;;;;5.37;3.30;;;;;;;15.67;100.00;95386.84;5032649;27;104876;-64
2022/05/24 03:35:37;;;;;;;5.93;3.33;;;;;;;15.72;100.00;95375.19;5032388;28;102761;-64
2022/05/24 03:38:06;;;;;;;4.27;3.27;;;;;;;15.75;100.00;95383.41;5031359;28;102021;-64
2022/05/24 03:40:33;;;;;;;4.03;3.23;;;;;;;15.75;100.00;95375.38;5032637;28;102809;-64
2022/05/24 03:43:01;;;;;;;4.93;3.30;;;;;;;15.74;100.00;95378.34;5034023;28;103917;-64
2022/05/24 03:45:35;;;;;;;4.47;3.30;;;;;;;15.76;100.00;95371.59;5032818;28;102887;-64
2022/05/24 03:48:02;;;;;;;3.40;3.10;;;;;;;15.78;100.00;95373.97;5032237;27;102617;-64
2022/05/24 03:50:29;;;;;;;4.53;3.37;;;;;;;15.82;100.00;95369.59;5032484;27;101951;-64
2022/05/24 03:52:56;;;;;;;4.50;3.17;;;;;;;15.79;100.00;95365.63;5030774;28;106569;-64
2022/05/24 03:55:51;;;;;;;5.73;3.50;;;;;;;15.83;100.00;95358.56;5030534;28;105172;-64
2022/05/24 03:59:13;;;;;;;5.30;3.43;;;;;;;15.84;100.00;95370.06;5030493;28;103416;-64
2022/05/24 04:01:40;;;;;;;4.70;3.53;;;;;;;15.88;100.00;95365.69;5030555;28;103788;-64
2022/05/24 04:04:36;;;;;;;4.47;2.97;;;;;;;15.88;100.00;95360.31;5033818;28;105768;-64
2022/05/24 04:07:03;;;;;;;3.73;3.07;;;;;;;15.89;100.00;95360.00;5030538;28;105058;-64
2022/05/24 04:09:33;;;;;;;3.20;2.90;;;;;;;15.91;100.00;95360.47;5030181;28;105642;-64
2022/05/24 04:12:02;;;;;;;3.23;2.93;;;;;;;15.95;100.00;95358.78;5030951;28;101980;-64
2022/05/24 04:14:53;;;;;;;5.33;3.30;;;;;;;15.96;100.00;95352.31;5030854;28;104912;-63
2022/05/24 04:17:20;;;;;;;4.60;2.80;;;;;;;15.96;100.00;95348.84;5010237;28;105363;-64
2022/05/24 04:19:47;;;;;;;3.67;3.00;;;;;;;15.97;100.00;95353.88;5012049;28;102298;-64
2022/05/24 04:22:14;;;;;;;4.43;3.00;;;;;;;15.97;100.00;95350.44;5030833;28;104036;-64
2022/05/24 04:24:58;;;;;;;4.67;3.50;;;;;;;15.89;100.00;95360.00;5031125;28;103295;-64
2022/05/24 04:27:36;;;;;;;5.37;3.40;;;;;;;15.76;100.00;95368.91;5035888;28;101705;-64
2022/05/24 04:30:04;;;;;;;4.03;3.63;;;;;;;15.82;100.00;95380.31;5010211;28;105388;-64
2022/05/24 04:32:31;;;;;;;5.80;2.90;;;;;;;15.79;100.00;95383.59;5026997;28;102167;-64
2022/05/24 04:38:21;;;;;;;4.57;3.00;;;;;;;15.74;100.00;95391.75;5030101;28;104297;-64
2022/05/24 04:44:15;;;;;;;6.57;3.17;;;;;;;15.78;100.00;95380.13;5030130;28;104910;-64
2022/05/24 04:49:28;;;;;;;4.17;2.90;;;;;;;15.76;100.00;95379.63;5030297;28;101860;-63
2022/05/24 04:51:55;;;;;;;3.27;2.80;;;;;;;15.81;100.00;95384.09;5033385;28;105329;-64
2022/05/24 04:54:35;;;;;;;5.70;3.33;;;;;;;15.87;100.00;95383.63;5029720;28;101986;-64
2022/05/24 04:57:04;;;;;;;4.77;2.70;;;;;;;15.89;100.00;95383.34;5029726;28;103943;-63
2022/05/24 04:59:30;;;;;;;5.00;2.70;;;;;;;15.90;100.00;95385.72;5029267;28;104156;-64
2022/05/24 05:01:59;;;;;;;3.37;2.60;;;;;;;15.94;100.00;95386.69;5029769;28;102627;-64
2022/05/24 05:04:37;;;;;;;4.47;2.63;;;;;;;16.01;100.00;95388.91;5029855;28;105205;-64
2022/05/24 05:07:05;;;;;;;4.13;2.60;;;;;;;15.98;100.00;95381.50;5009362;28;105636;-64
2022/05/24 05:09:35;;;;;;;5.03;3.20;;;;;;;16.06;100.00;95391.47;5026995;27;102203;-64
2022/05/24 05:12:04;;;;;;;3.67;2.60;;;;;;;16.13;100.00;95383.78;5030178;28;103924;-64
2022/05/24 05:14:37;;;;;;;5.27;2.70;;;;;;;16.13;100.00;95391.84;5031837;28;105359;-63
2022/05/24 05:17:12;;;;;;;6.37;2.73;;;;;;;16.18;100.00;95380.97;5026674;28;104858;-64
2022/05/24 05:19:40;;;;;;;3.10;2.47;;;;;;;16.18;100.00;95378.28;5008979;28;105323;-64
2022/05/24 05:22:07;;;;;;;3.87;2.50;;;;;;;16.22;100.00;95381.91;5026571;28;101976;-64
2022/05/24 05:32:09;;;;;;;6.50;2.87;;;;;;;16.10;100.00;95392.44;5027780;28;101904;-64
2022/05/24 05:34:39;;;;;;;3.73;2.63;;;;;;;16.19;100.00;95399.41;5029435;28;104563;-64
2022/05/24 05:37:07;;;;;;;4.57;2.77;;;;;;;16.27;100.00;95392.50;5028915;28;105394;-64
2022/05/24 05:39:35;;;;;;;3.63;2.67;;;;;;;16.17;100.00;95396.28;5032449;28;102040;-64
2022/05/24 05:42:02;;;;;;;6.10;3.30;;;;;;;16.24;100.00;95406.56;5028887;28;104026;-64
2022/05/24 05:44:31;;;;;;;4.63;2.80;;;;;;;16.23;100.00;95402.28;5029269;28;101907;-64
2022/05/24 05:46:58;;;;;;;3.00;2.80;;;;;;;16.34;100.00;95403.59;5029604;28;103687;-64
2022/05/24 05:49:25;;;;;;;5.67;3.20;;;;;;;16.31;100.00;95406.91;5028456;28;105106;-64
2022/05/24 05:51:55;;;;;;;3.60;3.30;;;;;;;16.35;100.00;95405.97;5029206;28;101971;-64
2022/05/24 05:58:34;;;;;;;4.30;3.30;;;;;;;16.43;100.00;95415.19;5028368;28;105720;-64
2022/05/24 06:01:02;;;;;;;6.07;3.40;;;;;;;16.41;100.00;95420.06;5027894;28;102072;-64
2022/05/24 06:03:30;;;;;;;6.00;2.90;;;;;;;16.38;100.00;95415.28;5031785;28;105550;-64
2022/05/24 06:06:01;;;;;;;4.03;3.30;;;;;;;16.40;100.00;95411.22;5028862;28;102077;-64
2022/05/24 06:08:29;;;;;;;2.90;2.60;;;;;;;16.44;100.00;95409.50;5028614;28;105341;-63
2022/05/24 06:10:56;;;;;;;3.97;3.13;;;;;;;16.46;100.00;95417.25;5030030;28;103108;-64
2022/05/24 06:13:24;;;;;;;5.20;2.90;;;;;;;16.39;100.00;95415.00;5047488;27;101998;-64
2022/05/24 06:15:52;;;;;;;2.90;2.70;;;;;;;16.51;100.00;95422.50;5026770;28;102323;-64
2022/05/24 06:18:19;;;;;;;5.10;2.70;;;;;;;16.65;100.00;95426.63;5029829;27;102539;-64
2022/05/24 06:20:46;;;;;;;6.00;2.77;;;;;;;16.78;100.00;95422.25;5028467;27;101916;-64
2022/05/24 06:23:13;;;;;;;3.30;2.97;;;;;;;17.00;100.00;95419.47;5031301;28;105092;-64
2022/05/24 06:26:06;;;;;;;3.10;2.70;;;;;;;17.13;100.00;95418.53;5028602;28;101885;-64
2022/05/24 06:28:35;;;;;;;4.07;3.00;;;;;;;17.12;100.00;95412.34;5028729;28;103998;-64
2022/05/24 06:31:03;;;;;;;4.93;3.07;;;;;;;17.18;100.00;95415.69;5028150;28;105692;-64
2022/05/24 06:33:30;;;;;;;7.20;3.13;;;;;;;17.20;100.00;95413.47;5028811;28;101869;-64
2022/05/24 06:35:57;;;;;;;3.17;2.83;;;;;;;17.13;100.00;95407.78;5027776;28;105492;-64
2022/05/24 06:38:24;;;;;;;3.70;2.60;;;;;;;17.37;100.00;95418.84;5029479;28;102748;-64
2022/05/24 06:40:51;;;;;;;4.57;2.90;;;;;;;17.57;100.00;95419.06;5029829;28;101917;-64
2022/05/24 06:43:20;;;;;;;3.53;2.73;;;;;;;17.55;100.00;95418.56;5029789;28;102442;-63
2022/05/24 06:45:47;;;;;;;2.83;2.50;;;;;;;17.65;100.00;95425.53;5032067;28;102597;-63
2022/05/24 06:48:14;;;;;;;2.77;2.57;;;;;;;17.86;100.00;95429.13;5029685;28;102372;-63
2022/05/24 06:50:42;;;;;;;4.47;2.60;;;;;;;17.95;100.00;95430.72;5027924;28;106380;-63
2022/05/24 06:53:11;;;;;;;2.43;2.23;;;;;;;17.80;100.00;95438.47;5028378;28;101995;-63
2022/05/24 06:55:38;;;;;;;2.90;2.37;;;;;;;17.80;100.00;95441.16;5029158;27;102538;-63
2022/05/24 06:58:06;;;;;;;3.63;2.10;;;;;;;18.12;100.00;95446.00;5028927;27;102609;-63
2022/05/24 07:03:20;;;;;;;4.53;1.97;;;;;;;18.21;100.00;95438.72;5029818;27;102909;-63
2022/05/24 07:05:47;;;;;;;3.20;1.70;;;;;;;18.15;100.00;95446.16;5028812;27;103194;-63
2022/05/24 07:08:18;;;;;;;2.90;1.60;;;;;;;18.15;100.00;95448.09;5031434;28;102505;-64
2022/05/24 07:10:45;;;;;;;4.20;1.80;;;;;;;18.40;100.00;95442.66;5028286;28;104093;-64
2022/05/24 07:13:16;;;;;;;1.87;1.60;;;;;;;18.59;100.00;95444.97;5028120;28;101973;-64
2022/05/24 07:15:47;;;;;;;1.83;1.67;;;;;;;18.50;100.00;95453.06;5027878;28;105464;-63
2022/05/24 07:18:14;;;;;;;1.93;1.70;;;;;;;18.63;100.00;95448.59;5027132;28;105457;-64
2022/05/24 07:20:42;;;;;;;4.30;2.07;;;;;;;18.65;100.00;95447.13;5027054;28;101999;-63
2022/05/24 07:23:12;;;;;;;3.07;2.30;;;;;;;18.67;100.00;95452.19;5029130;27;102677;-63
2022/05/24 07:25:41;;;;;;;4.10;2.40;;;;;;;18.69;100.00;95450.00;5026905;28;105195;-64
2022/05/24 07:28:09;;;;;;;2.40;1.97;;;;;;;18.54;100.00;95445.13;5027798;28;102526;-64
2022/05/24 07:30:36;;;;;;;2.13;1.90;;;;;;;18.52;100.00;95460.84;5030446;28;103692;-64
2022/05/24 07:33:05;;;;;;;2.57;2.20;;;;;;;18.40;100.00;95460.69;5028763;27;101881;-64
2022/05/24 07:35:33;;;;;;;2.70;2.40;;;;;;;18.51;100.00;95462.72;5030876;28;104984;-64
2022/05/24 07:38:00;;;;;;;2.80;2.57;;;;;;;18.74;100.00;95463.28;5030706;28;104366;-64
2022/05/24 07:46:03;;;;;;;2.67;1.80;;;;;;;18.48;100.00;95470.66;5030227;28;105322;-64
2022/05/24 07:48:32;;;;;;;1.53;1.43;;;;;;;18.52;100.00;95487.75;5030772;28;101748;-64
2022/05/24 07:50:59;;;;;;;3.17;1.87;;;;;;;18.50;100.00;95481.88;5030960;28;104741;-64
2022/05/24 07:53:26;;;;;;;2.03;1.33;;;;;;;18.42;100.00;95482.72;5033672;28;105586;-64
2022/05/24 07:55:54;;;;;;;1.63;1.50;;;;;;;18.36;100.00;95489.38;5030757;28;105279;-64
2022/05/24 07:58:22;;;;;;;3.00;1.40;;;;;;;18.39;100.00;95491.41;5029975;28;105352;-64
2022/05/24 08:00:49;;;;;;;2.80;1.40;;;;;;;18.31;100.00;95497.59;5030088;28;101983;-64
2022/05/24 08:03:16;;;;;;;2.90;1.57;;;;;;;18.29;100.00;95492.53;5030523;28;105068;-64
2022/05/24 08:05:45;;;;;;;3.80;1.67;;;;;;;18.18;100.00;95509.31;5030147;28;105541;-64
2022/05/24 08:08:14;;;;;;;3.60;1.37;;;;;;;18.09;100.00;95512.03;5030655;28;102232;-64
2022/05/24 08:10:41;;;;;;;4.77;1.57;;;;;;;18.21;100.00;95514.06;5030155;28;104207;-63
2022/05/24 08:13:11;;;;;;;2.70;1.43;;;;;;;18.18;100.00;95520.06;5029962;28;104224;-64
2022/05/24 08:15:38;;;;;;;2.37;1.50;;;;;;;18.04;100.00;95524.84;5034035;28;102530;-64
2022/05/24 08:18:06;;;;;;;1.67;1.30;;;;;;;18.04;100.00;95532.94;5029749;28;105104;-64
2022/05/24 08:20:34;;;;;;;1.80;1.60;;;;;;;18.09;100.00;95538.16;5030101;28;101952;-64
2022/05/24 08:23:04;;;;;;;2.90;1.60;;;;;;;17.85;100.00;95545.88;5031911;27;102321;-64
2022/05/24 08:25:32;;;;;;;2.33;1.50;;;;;;;17.78;100.00;95548.28;5029489;28;105459;-64
2022/05/24 08:28:02;;;;;;;2.43;1.40;;;;;;;17.69;100.00;95555.53;5030163;28;101810;-64
2022/05/24 08:30:30;;;;;;;1.00;1.00;;;;;;;17.52;100.00;95556.31;5031921;27;102265;-64
2022/05/24 08:32:57;;;;;;;3.40;1.60;;;;;;;17.48;100.00;95559.91;5029622;28;103974;-63
2022/05/24 08:35:25;;;;;;;2.00;1.40;;;;;;;17.41;100.00;95564.97;5033524;28;101862;-63
2022/05/24 08:37:52;;;;;;;2.47;1.40;;;;;;;17.39;100.00;95561.81;5029260;28;104684;-63
2022/05/24 08:40:22;;;;;;;2.50;1.40;;;;;;;17.23;100.00;95568.69;5030327;28;101848;-63
2022/05/24 08:43:25;;;;;;;2.77;1.60;;;;;;;17.18;100.00;95572.31;5030039;28;105665;-64
2022/05/24 08:48:41;;;;;;;4.83;1.97;;;;;;;17.05;100.00;95583.94;4974836;28;102070;-64
2022/05/24 08:51:14;;;;;;;2.30;1.40;;;;;;;17.03;100.00;95590.72;5031255;27;102834;-64
2022/05/24 08:53:45;;;;;;;3.77;1.70;;;;;;;16.90;100.00;95591.63;5030824;27;103021;-64
2022/05/24 08:56:17;;;;;;;2.93;1.70;;;;;;;16.93;100.00;95585.63;5031267;28;102463;-63
2022/05/24 08:58:50;;;;;;;3.43;1.80;;;;;;;16.84;100.00;95595.53;5034171;28;102523;-63
2022/05/24 09:01:22;;;;;;;2.33;1.77;;;;;;;16.83;100.00;95600.13;5030999;27;102087;-63
2022/05/24 09:03:50;;;;;;;5.13;1.80;;;;;;;16.76;100.00;95604.34;5031240;28;102681;-63
2022/05/24 09:06:32;;;;;;;3.37;1.80;;;;;;;16.77;100.00;95614.78;5028915;28;104183;-64
2022/05/24 09:09:14;;;;;;;3.20;1.90;;;;;;;16.70;100.00;95610.94;5029641;28;102037;-64
2022/05/24 09:11:54;;;;;;;2.20;2.00;;;;;;;16.69;100.00;95618.22;5031396;28;102684;-64
2022/05/24 09:14:29;;;;;;;2.83;2.13;;;;;;;16.64;100.00;95614.84;5030490;28;102763;-64
2022/05/24 09:17:06;;;;;;;2.70;1.93;;;;;;;16.60;100.00;95614.66;5031024;28;102040;-64
2022/05/24 09:19:36;;;;;;;2.70;1.90;;;;;;;16.63;100.00;95619.41;5030875;27;103090;-63
2022/05/24 09:22:03;;;;;;;2.90;1.83;;;;;;;16.63;100.00;95640.13;5032234;28;105509;-63
2022/05/24 09:24:42;;;;;;;2.00;1.80;;;;;;;16.52;100.00;95630.72;5029604;28;105563;-64
2022/05/24 09:27:14;;;;;;;4.00;1.70;;;;;;;16.35;100.00;95649.34;5028673;28;104223;-64
2022/05/24 09:30:02;;;;;;;2.70;1.63;;;;;;;16.28;100.00;95644.41;5029242;28;102214;-64
2022/05/24 09:32:36;;;;;;;1.97;1.43;;;;;;;16.19;100.00;95648.91;5029461;28;104834;-64
2022/05/24 09:35:10;;;;;;;3.77;1.87;;;;;;;16.02;100.00;95656.00;5028524;28;105767;-63
2022/05/24 09:37:38;;;;;;;2.53;1.70;;;;;;;15.96;100.00;95657.22;5029089;28;101893;-63
2022/05/24 09:40:16;;;;;;;2.60;1.40;;;;;;;15.97;100.00;95659.59;5029304;28;104809;-63
2022/05/24 09:42:45;;;;;;;1.70;1.40;;;;;;;15.98;100.00;95661.16;5028340;28;105912;-64
2022/05/24 09:45:16;;;;;;;1.53;1.43;;;;;;;15.94;100.00;95665.56;5032329;28;102653;-63
2022/05/24 09:47:55;;;;;;;2.23;1.70;;;;;;;16.00;100.00;95674.28;5028398;28;104017;-63
2022/05/24 09:50:29;;;;;;;1.70;1.50;;;;;;;15.99;100.00;95680.75;5028549;28;102445;-63
2022/05/24 09:53:14;;;;;;;1.90;1.63;;;;;;;15.90;100.00;95693.25;5029443;28;105426;-63
2022/05/24 09:55:46;;;;;;;3.13;1.67;;;;;;;15.81;100.00;95701.22;5029199;28;102938;-64
2022/05/24 09:58:20;;;;;;;2.27;1.37;;;;;;;15.51;100.00;95703.69;5028936;28;102034;-63
2022/05/24 10:00:53;;;;;;;1.40;1.30;;;;;;;15.41;100.00;95710.06;5028546;28;105449;-63
2022/05/24 10:03:27;;;;;;;2.73;1.23;;;;;;;15.30;100.00;95722.03;5029251;28;102710;-64
2022/05/24 10:05:56;;;;;;;1.37;1.30;;;;;;;15.30;100.00;95726.56;5030211;27;101689;-63
2022/05/24 10:08:23;;;;;;;1.20;1.10;;;;;;;15.26;100.00;95730.94;5031542;28;103587;-63
2022/05/24 10:10:56;;;;;;;1.40;1.30;;;;;;;15.29;100.00;95730.34;5029944;27;101826;-63
2022/05/24 10:13:37;;;;;;;3.13;1.50;;;;;;;15.33;100.00;95734.88;5030186;28;102525;-63
2022/05/24 10:16:12;;;;;;;1.43;1.20;;;;;;;15.39;100.00;95732.88;5027618;28;104245;-63
2022/05/24 10:18:51;;;;;;;1.30;1.20;;;;;;;15.57;100.00;95726.63;5028659;28;101942;-63
2022/05/24 10:21:26;;;;;;;2.20;1.60;;;;;;;15.70;100.00;95720.50;5028256;28;103994;-63
2022/05/24 10:24:02;;;;;;;1.47;1.33;;;;;;;15.95;100.00;95719.97;5029527;28;102643;-63
2022/05/24 10:26:41;;;;;;;2.60;1.70;;;;;;;16.00;100.00;95717.19;5029891;27;101819;-63
2022/05/24 10:29:22;;;;;;;1.83;1.73;;;;;;;15.88;100.00;95724.94;5028152;28;104128;-63
2022/05/24 10:31:54;;;;;;;3.50;1.90;;;;;;;15.91;100.00;95729.72;5032718;27;102031;-63
2022/05/24 10:40:33;;;;;;;1.70;1.40;;;;;;;15.96;100.00;95737.66;5030032;27;102126;-63
2022/05/24 10:43:31;;;;;;;1.90;1.63;;;;;;;15.96;100.00;95738.44;5029750;28;102430;-63
2022/05/24 10:46:05;;;;;;;2.13;1.90;;;;;;;15.85;100.00;95746.97;5027542;28;106732;-63
2022/05/24 10:48:36;;;;;;;1.87;1.60;;;;;;;16.10;100.00;95749.97;5029828;27;102089;-63
2022/05/24 10:51:10;;;;;;;2.10;1.90;;;;;;;16.25;100.00;95751.53;5029612;28;102590;-63
2022/05/24 10:53:45;;;;;;;2.40;2.00;;;;;;;16.35;100.00;95736.00;5031047;28;105536;-63
2022/05/24 10:56:26;;;;;;;2.20;2.00;;;;;;;16.41;100.00;95740.19;5028048;28;103654;-63
2022/05/24 10:59:01;;;;;;;2.10;1.90;;;;;;;16.39;100.00;95746.94;5029030;28;102651;-63
2022/05/24 11:01:33;;;;;;;4.90;1.90;;;;;;;16.37;100.00;95749.13;5027735;28;101995;-63
2022/05/24 11:04:05;;;;;;;2.60;1.60;;;;;;;16.34;100.00;95745.16;5029343;28;102746;-63
2022/05/24 11:06:39;;;;;;;1.50;1.40;;;;;;;16.28;100.00;95745.53;5027285;27;105327;-63
2022/05/24 11:09:09;;;;;;;2.03;1.40;;;;;;;16.31;100.00;95744.97;5030654;28;101921;-63
2022/05/24 11:11:44;;;;;;;1.70;1.40;;;;;;;16.43;100.00;95729.16;5032818;28;102312;-63
2022/05/24 11:14:18;;;;;;;1.93;1.40;;;;;;;16.45;100.00;95740.41;5030785;28;105268;-63
2022/05/24 11:16:48;;;;;;;2.00;1.53;;;;;;;16.49;100.00;95727.94;5034589;28;101944;-63
2022/05/24 11:19:18;;;;;;;1.57;1.47;;;;;;;16.40;100.00;95721.72;5030635;28;105315;-63
2022/05/24 11:21:54;;;;;;;2.00;1.73;;;;;;;16.62;100.00;95719.06;5031226;28;102146;-63
2022/05/24 11:24:33;;;;;;;1.30;1.20;;;;;;;16.75;100.00;95720.91;5032941;28;102897;-63
2022/05/24 11:27:02;;;;;;;2.33;1.43;;;;;;;16.95;100.00;95720.41;5030675;28;104418;-63
2022/05/24 11:29:43;;;;;;;1.40;1.30;;;;;;;17.02;100.00;95724.25;5032418;27;101730;-63
2022/05/24 11:32:12;;;;;;;2.60;1.43;;;;;;;16.78;100.00;95729.13;5031153;28;105661;-64
2022/05/24 11:34:42;;;;;;;2.93;1.30;;;;;;;16.72;100.00;95740.28;5030748;28;105067;-63
2022/05/24 11:37:15;;;;;;;1.57;1.23;;;;;;;16.78;100.00;95739.88;5031062;28;101874;-63
2022/05/24 11:39:44;;;;;;;1.90;1.23;;;;;;;16.54;100.00;95720.59;5033890;28;103845;-63
2022/05/24 11:42:29;;;;;;;3.73;1.30;;;;;;;16.51;100.00;95718.50;5032268;27;102041;-63
2022/05/24 11:44:58;;;;;;;1.87;1.20;;;;;;;16.67;100.00;95721.63;5032291;28;102434;-63
2022/05/24 11:47:59;;;;;;;1.73;1.20;;;;;;;16.61;100.00;95722.81;5031937;28;102956;-63
2022/05/24 11:50:45;;;;;;;3.23;1.23;;;;;;;16.59;100.00;95735.75;5030793;28;101876;-63
2022/05/24 11:53:34;;;;;;;2.70;1.40;;;;;;;16.75;100.00;95729.75;5030999;28;104136;-63
2022/05/24 11:56:21;;;;;;;1.60;1.00;;;;;;;16.74;100.00;95727.38;5029746;28;103951;-63
2022/05/24 11:58:59;;;;;;;2.00;1.20;;;;;;;16.59;100.00;95730.41;5030230;28;101956;-63
2022/05/24 12:01:38;;;;;;;2.37;1.10;;;;;;;16.59;100.00;95735.75;5030412;28;104857;-63
2022/05/24 12:10:38;;;;;;;2.20;0.90;;;;;;;16.75;100.00;95728.94;5031123;27;102992;-63
2022/05/24 12:13:34;;;;;;;1.30;1.03;;;;;;;16.84;100.00;95727.13;5031852;28;101681;-63
2022/05/24 12:16:05;;;;;;;2.10;1.10;;;;;;;16.96;100.00;95732.75;5030420;28;105270;-63
2022/05/24 12:18:45;;;;;;;2.37;1.13;;;;;;;16.90;100.00;95742.03;5029437;27;103816;-63
2022/05/24 12:21:39;;;;;;;2.13;0.90;;;;;;;16.57;100.00;95735.28;5030238;28;102083;-63
2022/05/24 12:24:49;;;;;;;1.43;1.03;;;;;;;16.87;100.00;95731.88;5030403;28;103642;-63
2022/05/24 12:27:43;;;;;;;1.83;1.20;;;;;;;16.93;100.00;95730.66;5028034;28;103784;-63
2022/05/24 12:30:43;;;;;;;0.90;0.90;;;;;;;16.74;100.00;95727.38;5020284;28;101831;-63
2022/05/24 12:33:21;;;;;;;1.47;1.20;;;;;;;16.74;100.00;95738.88;5029767;28;103932;-63
2022/05/24 12:35:52;;;;;;;4.87;1.10;;;;;;;16.83;100.00;95750.50;5030284;28;101902;-63
2022/05/24 12:38:24;;;;;;;2.13;1.20;;;;;;;16.72;100.00;95745.66;5030121;28;105208;-63
2022/05/24 12:40:51;;;;;;;2.90;1.20;;;;;;;16.84;100.00;95744.03;5029336;28;105324;-63
2022/05/24 12:43:19;;;;;;;1.07;0.97;;;;;;;16.83;100.00;95744.31;5029622;28;102235;-63
2022/05/24 12:45:50;;;;;;;3.23;1.20;;;;;;;16.92;100.00;95739.81;5029839;28;105092;-63
2022/05/24 12:48:35;;;;;;;2.00;1.43;;;;;;;16.99;100.00;95738.28;5029291;28;105694;-63
2022/05/24 12:51:04;;;;;;;2.57;1.20;;;;;;;16.83;100.00;95737.06;5032975;28;101760;-63
2022/05/24 12:53:33;;;;;;;1.73;1.10;;;;;;;16.83;100.00;95741.63;5029370;28;106375;-63
2022/05/24 12:56:03;;;;;;;1.60;1.00;;;;;;;16.89;100.00;95746.59;5031344;28;101954;-63